Time;durP1;ratioP1;P1;durP2;ratioP2;P2;SDS_P1;SDS_P2;PMS_P1;PMS_P2;Temp;Humidity;BMP_temperature;BMP_pressure;BME280_temperature;BME280_humidity;BME280_pressure;Samples;Min_cycle;Max_cycle;Signal;HPM_P1;HPM_P2
2021/12/24 05:15:00;;;;;;;5.97;3.00;;;10.10;99.90;;;;;;4455411;23;20493;-81
2021/12/24 05:17:33;;;;;;;5.60;3.60;;;10.20;99.90;;;;;;4997102;28;20459;-80
2021/12/24 05:22:44;;;;;;;5.03;2.93;;;10.20;99.90;;;;;;4997810;28;20877;-82
2021/12/24 05:25:11;;;;;;;5.38;3.10;;;10.20;99.90;;;;;;5003670;28;20820;-80
2021/12/24 05:27:38;;;;;;;4.90;2.90;;;10.20;99.90;;;;;;5003333;28;20210;-81
2021/12/24 05:30:08;;;;;;;4.47;2.40;;;10.20;99.90;;;;;;4999881;28;20460;-81
2021/12/24 05:32:36;;;;;;;5.43;2.97;;;10.30;99.90;;;;;;4999507;28;20455;-81
2021/12/24 05:35:03;;;;;;;4.50;3.00;;;10.30;99.90;;;;;;5005481;28;20495;-80
2021/12/24 05:37:30;;;;;;;5.20;3.00;;;10.40;99.90;;;;;;5003415;28;20450;-80
2021/12/24 05:39:57;;;;;;;5.20;2.70;;;10.40;99.90;;;;;;5009429;28;20205;-80
2021/12/24 05:42:26;;;;;;;5.30;3.13;;;10.50;99.90;;;;;;5003740;28;20458;-80
2021/12/24 05:44:57;;;;;;;7.20;3.00;;;10.40;99.90;;;;;;4996710;28;20476;-81
2021/12/24 05:47:25;;;;;;;4.33;2.30;;;10.50;99.90;;;;;;4996391;28;20446;-81
2021/12/24 05:49:52;;;;;;;4.80;2.80;;;10.50;99.90;;;;;;4996688;28;20454;-81
2021/12/24 05:52:19;;;;;;;6.83;2.73;;;10.60;99.90;;;;;;4996533;28;20799;-81
2021/12/24 05:54:45;;;;;;;5.77;2.60;;;10.60;99.90;;;;;;4996785;28;20490;-81
2021/12/24 05:57:12;;;;;;;5.20;2.57;;;10.60;99.90;;;;;;5008739;28;20457;-81
2021/12/24 05:59:39;;;;;;;8.23;3.20;;;10.60;99.90;;;;;;5009811;28;20465;-81
2021/12/24 06:02:06;;;;;;;7.87;4.30;;;10.60;99.90;;;;;;5000354;28;20461;-80
2021/12/24 06:04:34;;;;;;;5.90;3.17;;;10.60;99.90;;;;;;4998601;28;20470;-81
2021/12/24 06:07:01;;;;;;;6.67;3.90;;;10.60;99.90;;;;;;4996507;28;20544;-81
2021/12/24 06:09:28;;;;;;;6.00;3.30;;;10.60;99.90;;;;;;4996584;28;20438;-81
2021/12/24 06:11:55;;;;;;;5.37;3.00;;;10.60;99.90;;;;;;4996598;28;20469;-81
2021/12/24 06:14:21;;;;;;;5.67;3.30;;;10.60;99.90;;;;;;5004335;28;20501;-80
2021/12/24 06:16:57;;;;;;;8.30;3.47;;;10.60;99.90;;;;;;5010798;28;20477;-80
2021/12/24 06:19:26;;;;;;;4.70;2.90;;;10.60;99.90;;;;;;5000917;28;20484;-81
2021/12/24 06:21:54;;;;;;;5.90;3.17;;;10.60;99.90;;;;;;5006752;28;20463;-80
2021/12/24 06:24:21;;;;;;;6.33;3.50;;;10.60;99.90;;;;;;5007683;28;20564;-80
2021/12/24 06:26:48;;;;;;;6.50;2.77;;;10.60;99.90;;;;;;5000091;28;20454;-81
2021/12/24 06:29:15;;;;;;;5.30;3.10;;;10.60;99.90;;;;;;5000300;28;20457;-81
2021/12/24 06:31:42;;;;;;;6.60;2.83;;;10.80;99.90;;;;;;5002311;28;20456;-80
2021/12/24 06:34:09;;;;;;;5.80;3.30;;;10.70;99.90;;;;;;5001708;28;20484;-81
2021/12/24 06:36:40;;;;;;;5.53;3.40;;;10.80;99.90;;;;;;5000481;28;20454;-80
2021/12/24 06:39:09;;;;;;;6.20;2.93;;;10.80;99.90;;;;;;5000700;28;20752;-81
2021/12/24 06:41:36;;;;;;;5.50;3.20;;;10.70;99.90;;;;;;5000719;28;20462;-81
2021/12/24 06:44:04;;;;;;;5.07;3.57;;;10.70;99.90;;;;;;5000657;28;20474;-81
2021/12/24 06:46:31;;;;;;;6.80;3.20;;;10.80;99.90;;;;;;5001230;28;20468;-80
2021/12/24 06:48:58;;;;;;;5.40;3.20;;;10.80;99.90;;;;;;5000558;28;20533;-80
2021/12/24 06:51:25;;;;;;;5.93;3.17;;;10.80;99.90;;;;;;5012070;28;20517;-80
2021/12/24 06:53:52;;;;;;;5.70;3.50;;;10.80;99.90;;;;;;5000213;28;21001;-80
2021/12/24 06:56:20;;;;;;;4.27;2.50;;;10.90;99.90;;;;;;4999522;28;20493;-80
2021/12/24 06:58:47;;;;;;;5.33;3.47;;;10.80;99.90;;;;;;5000297;28;20806;-80
2021/12/24 07:01:14;;;;;;;5.23;3.20;;;10.80;99.90;;;;;;4999756;28;20464;-80
2021/12/24 07:03:42;;;;;;;5.10;3.17;;;10.80;99.90;;;;;;5000124;28;20494;-81
2021/12/24 07:06:09;;;;;;;6.47;3.50;;;10.80;99.90;;;;;;4999295;28;20461;-80
2021/12/24 07:08:36;;;;;;;5.23;3.40;;;10.80;99.90;;;;;;5000384;28;20516;-80
2021/12/24 07:11:04;;;;;;;7.30;3.33;;;10.70;99.90;;;;;;5014158;28;20528;-80
2021/12/24 07:13:33;;;;;;;5.73;3.07;;;10.70;99.90;;;;;;5013865;28;20499;-80
2021/12/24 07:15:59;;;;;;;6.73;3.53;;;10.70;99.90;;;;;;5012787;28;20568;-80
2021/12/24 07:18:26;;;;;;;4.97;3.07;;;10.70;99.90;;;;;;5000409;28;20997;-81
2021/12/24 07:20:53;;;;;;;6.10;3.70;;;10.70;99.90;;;;;;5004509;28;20520;-80
2021/12/24 07:23:20;;;;;;;5.60;3.03;;;10.80;99.90;;;;;;5006777;28;20862;-81
2021/12/24 07:25:47;;;;;;;5.90;2.90;;;10.70;99.90;;;;;;5000342;28;20919;-81
2021/12/24 07:28:14;;;;;;;6.07;3.38;;;10.70;99.90;;;;;;5001356;28;20458;-81
2021/12/24 07:30:42;;;;;;;6.10;3.50;;;10.60;99.90;;;;;;5000866;28;20211;-80
2021/12/24 07:33:09;;;;;;;7.00;3.30;;;10.60;99.90;;;;;;4999376;28;20470;-81
2021/12/24 07:35:35;;;;;;;8.27;3.80;;;10.60;99.90;;;;;;4999179;28;20492;-80
2021/12/24 07:38:02;;;;;;;6.10;3.40;;;10.60;99.90;;;;;;4999393;28;20465;-80
2021/12/24 07:40:29;;;;;;;6.30;3.30;;;10.60;99.90;;;;;;4998930;28;20462;-80
2021/12/24 07:42:56;;;;;;;6.27;2.80;;;10.60;99.90;;;;;;4999204;28;20534;-81
2021/12/24 07:45:23;;;;;;;5.03;2.90;;;10.50;99.90;;;;;;5008481;28;20463;-80
2021/12/24 07:48:06;;;;;;;7.20;3.23;;;10.50;99.90;;;;;;5004959;28;20548;-81
2021/12/24 07:53:21;;;;;;;7.03;3.83;;;10.40;99.90;;;;;;4999849;28;20235;-80
2021/12/24 07:55:50;;;;;;;10.13;3.23;;;10.30;99.90;;;;;;5001248;28;21029;-80
2021/12/24 07:58:18;;;;;;;5.50;3.50;;;10.40;99.90;;;;;;5003935;28;20462;-79
2021/12/24 08:00:46;;;;;;;5.95;4.10;;;10.40;99.90;;;;;;5006931;28;20473;-79
2021/12/24 08:03:14;;;;;;;5.50;3.13;;;10.40;99.90;;;;;;5000673;28;20297;-79
2021/12/24 08:05:43;;;;;;;5.17;3.23;;;10.40;99.90;;;;;;4999036;28;20447;-81
2021/12/24 08:08:11;;;;;;;5.50;3.50;;;10.40;99.90;;;;;;5000040;28;20947;-80
2021/12/24 08:10:41;;;;;;;6.13;3.97;;;10.50;99.90;;;;;;5002140;28;20429;-79
2021/12/24 08:13:08;;;;;;;6.63;3.70;;;10.50;99.90;;;;;;5000004;28;20489;-81
2021/12/24 08:15:35;;;;;;;5.70;3.20;;;10.40;99.90;;;;;;4999431;28;20478;-80
2021/12/24 08:18:02;;;;;;;5.90;3.43;;;10.50;99.90;;;;;;4998802;28;20475;-80
2021/12/24 08:20:30;;;;;;;6.10;3.20;;;10.50;99.90;;;;;;4998510;28;20465;-80
2021/12/24 08:22:57;;;;;;;5.10;3.40;;;10.50;99.90;;;;;;4998915;28;20896;-81
2021/12/24 08:25:25;;;;;;;5.27;3.03;;;10.50;99.90;;;;;;4999241;28;20806;-80
2021/12/24 08:27:54;;;;;;;6.27;3.07;;;10.50;99.90;;;;;;4998470;28;20453;-80
2021/12/24 08:30:21;;;;;;;6.57;3.17;;;10.50;99.90;;;;;;5008678;28;20489;-80
2021/12/24 08:32:48;;;;;;;5.43;3.15;;;10.60;99.90;;;;;;5011116;28;20490;-80
2021/12/24 08:35:17;;;;;;;6.50;3.27;;;10.50;99.90;;;;;;5003210;28;20227;-80
2021/12/24 08:37:46;;;;;;;6.43;2.90;;;10.60;99.90;;;;;;4998068;28;20466;-80
2021/12/24 08:40:14;;;;;;;6.40;3.83;;;10.60;99.90;;;;;;4998956;28;20457;-80
2021/12/24 08:42:41;;;;;;;4.80;2.83;;;10.60;99.90;;;;;;4999601;28;20454;-81
2021/12/24 08:45:08;;;;;;;7.13;3.17;;;10.70;99.90;;;;;;5004223;28;20470;-80
2021/12/24 08:47:35;;;;;;;5.60;3.13;;;10.60;99.90;;;;;;5010080;28;20544;-80
2021/12/24 08:50:03;;;;;;;5.30;2.67;;;10.60;99.90;;;;;;4998378;28;20960;-80
2021/12/24 08:52:29;;;;;;;8.27;3.67;;;10.60;99.90;;;;;;4999492;28;20576;-81
2021/12/24 08:54:58;;;;;;;6.90;3.50;;;10.60;99.90;;;;;;5002062;28;20499;-79
2021/12/24 08:57:24;;;;;;;6.10;3.70;;;10.60;99.90;;;;;;4998311;28;20455;-82
2021/12/24 08:59:51;;;;;;;6.83;3.60;;;10.60;99.90;;;;;;4999045;28;20461;-80
2021/12/24 09:02:18;;;;;;;5.40;3.17;;;10.60;99.90;;;;;;4998665;28;20460;-80
2021/12/24 09:04:45;;;;;;;5.10;3.53;;;10.70;99.90;;;;;;4998123;28;20478;-80
2021/12/24 09:07:12;;;;;;;6.13;3.77;;;10.70;99.90;;;;;;4998335;28;20466;-80
2021/12/24 09:09:39;;;;;;;5.10;3.23;;;10.70;99.90;;;;;;4997706;28;20842;-80
2021/12/24 09:12:08;;;;;;;6.00;3.03;;;10.80;99.90;;;;;;4997940;28;20548;-81
2021/12/24 09:14:35;;;;;;;6.03;3.50;;;10.70;99.90;;;;;;4997290;28;21008;-81
2021/12/24 09:17:03;;;;;;;6.27;3.30;;;10.80;99.90;;;;;;4998365;28;20860;-80
2021/12/24 09:19:32;;;;;;;5.20;2.93;;;10.80;99.90;;;;;;4999096;28;20450;-81
2021/12/24 09:21:58;;;;;;;6.03;2.97;;;10.80;99.90;;;;;;4998851;28;20476;-80
2021/12/24 09:24:27;;;;;;;5.83;3.53;;;10.70;99.90;;;;;;4998888;28;20513;-81
2021/12/24 09:26:56;;;;;;;5.63;3.70;;;10.70;99.90;;;;;;4998846;28;20512;-81
2021/12/24 09:29:26;;;;;;;5.70;3.27;;;10.80;99.90;;;;;;5000416;28;20437;-80
2021/12/24 09:31:53;;;;;;;4.97;3.07;;;10.80;99.90;;;;;;5013190;28;20541;-80
2021/12/24 09:34:20;;;;;;;5.40;3.40;;;10.80;99.90;;;;;;5013310;28;20497;-80
2021/12/24 09:36:47;;;;;;;7.80;3.50;;;10.80;99.90;;;;;;5012709;28;20546;-80
2021/12/24 09:39:29;;;;;;;7.03;3.63;;;10.80;99.90;;;;;;5026902;23;20518;-81
2021/12/24 09:41:57;;;;;;;5.60;3.10;;;10.70;99.90;;;;;;4987175;28;20450;-81
2021/12/24 09:44:26;;;;;;;7.43;3.37;;;10.80;99.90;;;;;;4978079;28;20467;-81
2021/12/24 09:46:53;;;;;;;7.10;4.10;;;10.80;99.90;;;;;;4977807;28;20443;-81
2021/12/24 09:49:21;;;;;;;5.67;3.13;;;10.70;99.90;;;;;;4976506;28;20455;-81
2021/12/24 09:51:51;;;;;;;7.33;3.93;;;10.70;99.90;;;;;;4977988;28;20483;-81
2021/12/24 09:54:21;;;;;;;6.23;3.73;;;10.60;99.90;;;;;;4977737;28;20511;-81
2021/12/24 09:56:49;;;;;;;6.87;3.70;;;10.60;99.90;;;;;;4981509;28;20487;-80
2021/12/24 09:59:16;;;;;;;5.70;3.50;;;10.70;99.90;;;;;;4980854;28;20478;-80
2021/12/24 10:01:54;;;;;;;5.73;3.67;;;10.70;99.90;;;;;;4984339;28;20522;-80
2021/12/24 10:04:27;;;;;;;6.30;3.40;;;10.70;99.90;;;;;;4982190;28;20471;-81
2021/12/24 10:06:55;;;;;;;7.50;4.33;;;10.80;99.90;;;;;;4990577;28;20466;-80
2021/12/24 10:09:30;;;;;;;5.87;3.60;;;10.70;99.90;;;;;;4979931;28;20511;-81
2021/12/24 10:11:59;;;;;;;4.93;3.13;;;10.80;99.90;;;;;;4981145;28;20443;-81
2021/12/24 10:14:31;;;;;;;6.40;3.63;;;10.80;99.90;;;;;;4981910;28;20567;-80
2021/12/24 10:17:00;;;;;;;6.20;3.73;;;10.80;99.90;;;;;;4984733;28;20828;-81
2021/12/24 10:19:27;;;;;;;5.67;4.20;;;10.90;99.90;;;;;;4980499;28;20483;-81
2021/12/24 10:22:00;;;;;;;7.17;3.50;;;10.90;99.90;;;;;;4978476;28;20488;-81
2021/12/24 10:24:27;;;;;;;6.90;3.93;;;10.80;99.90;;;;;;4978500;28;20486;-83
2021/12/24 10:26:57;;;;;;;5.90;3.37;;;10.90;99.90;;;;;;4981314;28;20595;-81
2021/12/24 10:29:31;;;;;;;6.27;4.30;;;11.00;99.90;;;;;;4977828;28;20561;-81
2021/12/24 10:32:10;;;;;;;4.87;3.00;;;11.00;99.90;;;;;;4976578;28;20448;-81
2021/12/24 10:34:38;;;;;;;5.73;3.53;;;10.90;99.90;;;;;;4978288;28;20487;-81
2021/12/24 10:37:09;;;;;;;7.30;3.40;;;10.90;99.90;;;;;;4978659;28;20497;-82
2021/12/24 10:39:42;;;;;;;7.60;4.47;;;10.90;99.90;;;;;;4978849;28;20441;-81
2021/12/24 10:42:13;;;;;;;6.47;2.90;;;10.90;99.90;;;;;;4980019;28;20810;-81
2021/12/24 10:44:41;;;;;;;5.80;4.10;;;10.90;99.90;;;;;;4985907;28;20479;-80
2021/12/24 10:47:13;;;;;;;4.37;2.90;;;10.80;99.90;;;;;;4980278;28;20429;-80
2021/12/24 10:55:11;;;;;;;5.00;3.27;;;10.70;99.90;;;;;;4977452;28;20542;-82
2021/12/24 10:57:40;;;;;;;5.83;3.60;;;10.70;99.90;;;;;;4978818;28;20468;-82
2021/12/24 11:00:19;;;;;;;7.73;3.90;;;10.70;99.90;;;;;;4979128;28;20770;-82
2021/12/24 11:02:53;;;;;;;4.93;2.70;;;10.70;99.90;;;;;;4985770;28;20791;-79
2021/12/24 11:05:32;;;;;;;5.97;3.27;;;10.70;99.90;;;;;;4986036;28;20420;-82
2021/12/24 11:08:01;;;;;;;4.83;2.90;;;10.60;99.90;;;;;;4982075;28;20463;-80
2021/12/24 11:10:30;;;;;;;6.80;3.10;;;10.60;99.90;;;;;;4981859;28;20458;-81
2021/12/24 11:24:05;;;;;;;4.80;2.50;;;10.80;99.90;;;;;;5003631;26;20510;-89
2021/12/24 11:27:22;;;;;;;5.73;3.10;;;10.70;99.90;;;;;;5010502;28;20454;-89
2021/12/24 11:42:31;;;;;;;;;;;;;;;;;;;;;
2021/12/24 12:12:10;;;;;;;3.90;2.03;;;11.20;99.90;;;;;;4980477;28;20454;-89
2021/12/24 12:15:36;;;;;;;4.20;2.17;;;11.40;99.90;;;;;;5007508;28;20462;-90
2021/12/24 12:22:13;;;;;;;4.53;2.00;;;11.40;99.90;;;;;;4992021;28;20439;-88
2021/12/24 12:25:24;;;;;;;3.40;1.90;;;11.40;99.90;;;;;;4935058;29;20481;-89
2021/12/24 12:35:11;;;;;;;3.97;2.07;;;11.40;99.90;;;;;;4950651;28;20476;-89
2021/12/24 12:37:57;;;;;;;5.03;1.67;;;11.30;99.90;;;;;;4998968;28;20605;-89
2021/12/24 12:44:18;;;;;;;;;;;;;;;;;;;;;
2021/12/24 12:50:23;;;;;;;3.50;1.43;;;11.40;99.90;;;;;;5003455;28;20463;-88
2021/12/24 12:53:47;;;;;;;3.50;1.43;;;11.50;99.90;;;;;;5002027;28;20450;-88
2021/12/24 12:59:34;;;;;;;3.30;1.23;;;11.50;99.90;;;;;;4980603;28;20497;-90
2021/12/24 13:02:43;;;;;;;3.23;1.63;;;11.50;99.90;;;;;;5001127;28;20456;-88
2021/12/24 13:05:40;;;;;;;5.20;1.37;;;11.50;99.90;;;;;;4999234;28;20975;-89
2021/12/24 13:08:55;;;;;;;3.27;1.50;;;11.50;99.90;;;;;;5011132;28;20478;-88
2021/12/24 13:11:44;;;;;;;3.23;1.40;;;11.50;99.90;;;;;;4947423;29;20464;-89
2021/12/24 13:20:55;;;;;;;3.20;1.10;;;11.50;99.90;;;;;;5006079;28;20459;-89
2021/12/24 13:24:00;;;;;;;3.40;1.43;;;11.60;99.90;;;;;;4921148;29;20485;-89
2021/12/24 13:27:05;;;;;;;2.83;1.10;;;11.60;99.90;;;;;;4981988;28;20485;-89
2021/12/24 13:33:30;;;;;;;4.73;1.73;;;11.50;99.90;;;;;;4987810;28;20546;-88
2021/12/24 13:36:27;;;;;;;3.23;1.40;;;11.50;99.90;;;;;;5008370;28;20432;-89
2021/12/24 13:40:08;;;;;;;;;;;;;;;;;;;;;
2021/12/24 13:42:51;;;;;;;2.80;1.20;;;11.50;99.90;;;;;;5017835;28;20437;-88
2021/12/24 13:58:33;;;;;;;3.13;1.57;;;11.50;99.90;;;;;;5012648;28;20473;-89
2021/12/24 14:04:24;;;;;;;5.50;2.97;;;11.50;99.90;;;;;;4997413;28;20541;-90
2021/12/24 14:07:08;;;;;;;4.17;1.50;;;11.50;99.90;;;;;;4999014;28;20477;-89
2021/12/24 14:13:56;;;;;;;3.30;1.67;;;11.50;99.90;;;;;;5007714;28;20784;-89
2021/12/24 14:30:22;;;;;;;4.47;1.40;;;11.60;99.90;;;;;;4932644;28;20457;-90
2021/12/24 14:41:36;;;;;;;;;;;;;;;;;;;;;
2021/12/24 14:48:15;;;;;;;3.00;1.20;;;11.60;99.90;;;;;;5016771;28;20953;-88
2021/12/24 14:51:18;;;;;;;2.90;1.40;;;11.50;99.90;;;;;;5007459;28;20473;-90
2021/12/24 15:15:06;;;;;;;3.50;1.30;;;11.50;99.90;;;;;;4941218;29;20496;-89
2021/12/24 15:18:38;;;;;;;4.00;1.93;;;11.50;99.90;;;;;;5000925;28;20486;-89
2021/12/24 15:21:46;;;;;;;8.80;4.50;;;11.40;99.90;;;;;;4902931;29;20441;-89
2021/12/24 15:42:49;;;;;;;;;;;;;;;;;;;;;
2021/12/24 16:03:03;;;;;;;6.00;2.07;;;11.60;99.90;;;;;;4936169;29;20457;-89
2021/12/24 16:06:30;;;;;;;3.77;1.90;;;11.70;99.90;;;;;;4889599;29;20545;-90
2021/12/24 16:26:56;;;;;;;4.20;2.07;;;11.40;99.90;;;;;;4810741;29;20498;-89
2021/12/24 16:33:51;;;;;;;4.57;2.13;;;11.30;99.90;;;;;;4837367;29;20469;-89
2021/12/24 16:49:16;;;;;;;5.50;2.60;;;11.10;99.90;;;;;;4748798;29;20499;-89
2021/12/24 17:08:33;;;;;;;4.93;2.80;;;11.10;99.90;;;;;;4996627;28;20918;-88
2021/12/24 17:14:15;;;;;;;6.27;3.30;;;11.10;99.90;;;;;;4951475;23;20501;-80
2021/12/24 17:16:42;;;;;;;5.03;3.70;;;11.20;99.90;;;;;;5007420;28;20558;-81
2021/12/24 17:19:10;;;;;;;5.93;4.17;;;11.20;99.90;;;;;;4999685;28;20526;-80
2021/12/24 17:21:37;;;;;;;5.50;3.53;;;11.10;99.90;;;;;;5000567;28;20454;-80
2021/12/24 17:24:05;;;;;;;5.90;3.53;;;11.10;99.90;;;;;;4998611;28;20944;-80
2021/12/24 17:26:32;;;;;;;4.80;3.23;;;11.10;99.90;;;;;;4998326;28;20533;-81
2021/12/24 17:28:59;;;;;;;7.73;2.93;;;11.00;99.90;;;;;;5002685;28;20434;-81
2021/12/24 17:31:27;;;;;;;5.90;3.20;;;11.10;99.90;;;;;;4999310;28;20798;-81
2021/12/24 17:33:54;;;;;;;5.67;3.50;;;11.10;99.90;;;;;;4998454;28;20485;-81
2021/12/24 17:36:21;;;;;;;5.67;3.30;;;11.10;99.90;;;;;;4998081;28;20549;-82
2021/12/24 17:38:49;;;;;;;5.00;3.23;;;11.10;99.90;;;;;;4998821;28;20510;-80
2021/12/24 17:41:16;;;;;;;5.30;3.30;;;11.10;99.90;;;;;;4999256;28;20451;-80
2021/12/24 17:43:43;;;;;;;4.50;2.90;;;11.10;99.90;;;;;;4999058;28;20453;-81
2021/12/24 17:46:10;;;;;;;8.40;2.70;;;11.10;99.90;;;;;;4997749;28;20461;-80
2021/12/24 17:48:38;;;;;;;6.60;2.87;;;11.00;99.90;;;;;;5010529;28;20443;-80
2021/12/24 17:51:05;;;;;;;12.07;2.90;;;11.00;99.90;;;;;;4999932;28;20487;-80
2021/12/24 17:53:32;;;;;;;7.63;3.47;;;10.90;99.90;;;;;;4997404;28;20439;-81
2021/12/24 17:55:59;;;;;;;7.00;2.97;;;10.90;99.90;;;;;;4997738;28;20467;-81
2021/12/24 17:58:26;;;;;;;5.37;2.67;;;10.90;99.90;;;;;;5001734;28;20486;-81
2021/12/24 18:00:54;;;;;;;5.30;2.73;;;10.80;99.90;;;;;;5004253;28;20455;-80
2021/12/24 18:03:21;;;;;;;5.50;2.93;;;10.90;99.90;;;;;;4998615;28;20493;-82
2021/12/24 18:05:49;;;;;;;5.80;3.17;;;10.80;99.90;;;;;;4998420;28;20565;-81
2021/12/24 18:08:16;;;;;;;4.60;2.40;;;10.70;99.90;;;;;;4997683;28;20465;-80
2021/12/24 18:10:43;;;;;;;5.90;3.30;;;10.70;99.90;;;;;;4997424;28;20457;-82
2021/12/24 18:13:14;;;;;;;5.67;3.60;;;10.70;99.90;;;;;;4997742;28;20461;-81
2021/12/24 18:15:41;;;;;;;5.30;3.00;;;10.80;99.90;;;;;;4997231;28;20661;-81
2021/12/24 18:18:08;;;;;;;5.83;3.17;;;10.70;99.90;;;;;;4997622;28;20585;-82
2021/12/24 18:20:35;;;;;;;7.50;3.60;;;10.70;99.90;;;;;;5002934;28;20456;-80
2021/12/24 18:23:03;;;;;;;6.07;2.83;;;10.80;99.90;;;;;;4999979;28;20533;-81
2021/12/24 18:25:31;;;;;;;4.40;2.60;;;10.70;99.90;;;;;;5006052;28;20545;-80
2021/12/24 18:27:57;;;;;;;5.17;2.90;;;10.80;99.90;;;;;;5005467;28;20493;-80
2021/12/24 18:30:24;;;;;;;4.80;2.40;;;10.80;99.90;;;;;;4999286;28;20780;-80
2021/12/24 18:32:52;;;;;;;6.33;2.80;;;10.80;99.90;;;;;;4999183;28;20465;-80
2021/12/24 18:35:24;;;;;;;4.80;2.70;;;10.90;99.90;;;;;;4998153;28;20470;-81
2021/12/24 18:40:35;;;;;;;4.70;2.97;;;10.90;99.90;;;;;;4995327;28;20787;-81
2021/12/24 18:43:02;;;;;;;6.47;2.60;;;11.00;99.90;;;;;;4997965;28;20747;-81
2021/12/24 18:45:30;;;;;;;6.20;3.10;;;11.00;99.90;;;;;;4997352;28;20475;-81
2021/12/24 18:47:57;;;;;;;4.50;2.70;;;11.00;99.90;;;;;;4997242;28;20859;-81
2021/12/24 18:50:25;;;;;;;7.80;3.57;;;11.00;99.90;;;;;;4997892;28;20579;-80
2021/12/24 18:52:53;;;;;;;5.23;3.23;;;11.00;99.90;;;;;;4997686;28;20444;-81
2021/12/24 18:55:20;;;;;;;6.37;3.40;;;11.10;99.90;;;;;;4997494;28;20860;-80
2021/12/24 18:57:48;;;;;;;7.37;3.10;;;11.10;99.90;;;;;;4996693;28;20520;-83
2021/12/24 19:00:16;;;;;;;8.00;4.13;;;11.00;99.90;;;;;;4996465;28;20529;-81
2021/12/24 19:02:43;;;;;;;5.33;3.07;;;11.10;99.90;;;;;;4997055;28;20796;-81
2021/12/24 19:05:10;;;;;;;5.07;2.80;;;11.10;99.90;;;;;;4997490;28;20811;-82
2021/12/24 19:07:37;;;;;;;5.57;3.53;;;11.10;99.90;;;;;;4997565;28;20771;-82
2021/12/24 19:10:06;;;;;;;4.40;2.97;;;11.10;99.90;;;;;;4997033;28;20894;-81
2021/12/24 19:12:33;;;;;;;6.57;3.47;;;11.10;99.90;;;;;;4997127;28;20450;-81
2021/12/24 19:15:02;;;;;;;6.93;3.10;;;11.20;99.90;;;;;;4997017;28;20569;-81
2021/12/24 19:17:29;;;;;;;5.60;3.57;;;11.20;99.90;;;;;;4997020;28;20542;-80
2021/12/24 19:19:55;;;;;;;6.17;4.03;;;11.10;99.90;;;;;;4996820;28;20553;-82
2021/12/24 19:22:22;;;;;;;8.33;3.53;;;11.10;99.90;;;;;;4998624;28;20469;-81
2021/12/24 19:24:50;;;;;;;5.47;2.90;;;11.20;99.90;;;;;;5001031;28;20452;-81
2021/12/24 19:27:17;;;;;;;6.73;3.60;;;11.20;99.90;;;;;;4999842;28;20630;-80
2021/12/24 19:29:44;;;;;;;6.13;3.23;;;11.20;99.90;;;;;;5000349;28;20454;-80
2021/12/24 19:32:12;;;;;;;8.70;3.30;;;11.10;99.90;;;;;;5000170;28;20458;-81
2021/12/24 19:34:39;;;;;;;4.37;2.70;;;11.10;99.90;;;;;;5001106;28;20549;-81
2021/12/24 19:37:06;;;;;;;6.20;3.50;;;11.10;99.90;;;;;;5000872;28;20805;-82
2021/12/24 19:39:33;;;;;;;5.27;3.00;;;11.10;99.90;;;;;;5000709;28;20522;-82
2021/12/24 19:42:00;;;;;;;4.40;2.80;;;11.10;99.90;;;;;;5007476;28;20774;-81
2021/12/24 19:44:27;;;;;;;8.20;3.80;;;11.00;99.90;;;;;;5017012;28;20562;-81
2021/12/24 19:46:54;;;;;;;6.70;3.47;;;11.10;99.90;;;;;;5014187;28;20458;-81
2021/12/24 19:49:22;;;;;;;5.30;3.13;;;11.10;99.90;;;;;;5000364;28;20512;-81
2021/12/24 19:51:49;;;;;;;4.80;3.13;;;11.10;99.90;;;;;;5000487;28;20462;-80
2021/12/24 19:54:15;;;;;;;5.43;3.27;;;11.20;99.90;;;;;;5000930;28;21023;-81
2021/12/24 19:56:43;;;;;;;6.10;4.20;;;11.20;99.90;;;;;;5000634;28;20489;-80
2021/12/24 19:59:09;;;;;;;7.10;4.20;;;11.20;99.90;;;;;;5002471;28;20498;-80
2021/12/24 20:01:37;;;;;;;7.03;4.23;;;11.20;99.90;;;;;;5000210;28;20455;-80
2021/12/24 20:04:04;;;;;;;7.83;3.80;;;11.10;99.90;;;;;;5007970;28;20463;-80
2021/12/24 20:06:33;;;;;;;6.73;4.00;;;11.20;99.90;;;;;;5005937;28;20470;-81
2021/12/24 20:09:00;;;;;;;5.13;3.20;;;11.30;99.90;;;;;;5002287;28;20533;-81
2021/12/24 20:11:27;;;;;;;7.13;3.47;;;11.20;99.90;;;;;;4999756;28;20465;-80
2021/12/24 20:13:53;;;;;;;7.30;4.40;;;11.20;99.90;;;;;;4999250;28;20585;-81
2021/12/24 20:16:20;;;;;;;7.90;5.67;;;11.30;99.90;;;;;;5000212;28;21018;-81
2021/12/24 20:18:47;;;;;;;7.77;4.90;;;11.30;99.90;;;;;;5000211;28;20581;-81
2021/12/24 20:21:14;;;;;;;5.77;3.70;;;11.40;99.90;;;;;;5005596;28;20532;-82
2021/12/24 20:23:42;;;;;;;6.30;4.30;;;11.30;99.90;;;;;;5011663;28;20506;-81
2021/12/24 20:26:10;;;;;;;7.53;4.30;;;11.40;99.90;;;;;;5012026;28;20455;-80
2021/12/24 20:28:37;;;;;;;9.10;5.60;;;11.40;99.90;;;;;;5014507;28;20489;-81
2021/12/24 20:31:09;;;;;;;7.03;3.93;;;11.40;99.90;;;;;;5006721;28;20487;-81
2021/12/24 20:33:36;;;;;;;7.47;4.43;;;11.30;99.90;;;;;;4999177;28;20502;-80
2021/12/24 20:36:03;;;;;;;8.37;4.47;;;11.30;99.90;;;;;;4999509;28;20456;-81
2021/12/24 20:38:30;;;;;;;8.67;5.47;;;11.30;99.90;;;;;;5000256;28;20493;-81
2021/12/24 20:40:58;;;;;;;7.30;4.53;;;11.30;99.90;;;;;;4999536;28;20478;-80
2021/12/24 20:43:25;;;;;;;6.00;4.00;;;11.40;99.90;;;;;;5001557;28;20458;-80
2021/12/24 20:45:52;;;;;;;7.60;3.93;;;11.40;99.90;;;;;;4999958;28;20988;-80
2021/12/24 20:48:19;;;;;;;6.00;4.10;;;11.30;99.90;;;;;;4998509;28;20462;-80
2021/12/24 20:50:46;;;;;;;9.03;5.10;;;11.30;99.90;;;;;;4999859;28;20522;-80
2021/12/24 20:53:13;;;;;;;7.60;4.90;;;11.30;99.90;;;;;;5003989;28;20479;-80
2021/12/24 20:55:42;;;;;;;8.13;4.73;;;11.30;99.90;;;;;;5001087;28;20478;-80
2021/12/24 20:58:10;;;;;;;9.00;4.73;;;11.30;99.90;;;;;;5000845;28;20516;-80
2021/12/24 21:00:40;;;;;;;6.93;4.20;;;11.30;99.90;;;;;;5001631;28;20433;-81
2021/12/24 21:03:08;;;;;;;7.70;3.40;;;11.30;99.90;;;;;;4999201;28;20462;-81
2021/12/24 21:05:35;;;;;;;6.83;4.20;;;11.30;99.90;;;;;;4998006;28;20983;-81
2021/12/24 21:08:02;;;;;;;8.17;4.40;;;11.30;99.90;;;;;;4998134;28;20464;-80
2021/12/24 21:10:29;;;;;;;6.73;4.20;;;11.30;99.90;;;;;;4998489;28;20494;-81
2021/12/24 21:12:56;;;;;;;6.47;4.00;;;11.30;99.90;;;;;;4998109;28;20454;-81
2021/12/24 21:15:24;;;;;;;6.57;4.40;;;11.30;99.90;;;;;;4997809;28;20901;-81
2021/12/24 21:17:52;;;;;;;7.07;4.07;;;11.20;99.90;;;;;;4998693;28;20517;-80
2021/12/24 21:20:19;;;;;;;7.47;5.07;;;11.20;99.90;;;;;;4997408;28;20581;-82
2021/12/24 21:22:47;;;;;;;6.50;4.00;;;11.20;99.90;;;;;;4998250;28;20897;-81
2021/12/24 21:25:15;;;;;;;6.97;4.50;;;11.10;99.90;;;;;;4997872;28;20490;-81
2021/12/24 21:27:42;;;;;;;8.03;4.17;;;11.10;99.90;;;;;;4998367;28;20454;-81
2021/12/24 21:30:12;;;;;;;6.00;4.00;;;11.20;99.90;;;;;;4997403;28;20451;-81
2021/12/24 21:32:41;;;;;;;7.70;4.83;;;11.20;99.90;;;;;;4997863;28;20501;-80
2021/12/24 21:35:09;;;;;;;7.50;5.30;;;11.10;99.90;;;;;;4999643;28;20978;-81
2021/12/24 21:37:36;;;;;;;7.80;5.00;;;11.20;99.90;;;;;;5011544;28;20513;-80
2021/12/24 21:40:08;;;;;;;7.10;4.80;;;11.30;99.90;;;;;;5002050;28;20544;-81
2021/12/24 21:42:35;;;;;;;8.73;5.10;;;11.20;99.90;;;;;;4998040;28;20435;-81
2021/12/24 21:45:05;;;;;;;7.90;5.13;;;11.20;99.90;;;;;;4998136;28;20550;-81
2021/12/24 21:47:32;;;;;;;8.73;5.50;;;11.20;99.90;;;;;;4998327;28;20485;-81
2021/12/24 21:50:00;;;;;;;10.07;5.13;;;11.30;99.90;;;;;;4998884;28;20549;-81
2021/12/24 21:52:28;;;;;;;6.70;4.63;;;11.30;99.90;;;;;;5000229;28;20493;-80
2021/12/24 21:54:54;;;;;;;9.90;5.20;;;11.30;99.90;;;;;;5005416;28;20499;-81
2021/12/24 21:57:21;;;;;;;7.40;5.30;;;11.20;99.90;;;;;;5008612;28;20458;-80
2021/12/24 21:59:48;;;;;;;7.90;5.97;;;11.10;99.90;;;;;;5009664;28;20501;-80
2021/12/24 22:02:15;;;;;;;6.70;5.10;;;11.00;99.90;;;;;;5002216;28;20554;-81
2021/12/24 22:04:46;;;;;;;6.93;4.97;;;11.00;99.90;;;;;;4997226;28;20505;-81
2021/12/24 22:09:59;;;;;;;8.93;4.90;;;11.10;99.90;;;;;;4997306;28;20767;-80
2021/12/24 22:12:26;;;;;;;11.73;5.63;;;11.20;99.90;;;;;;4997276;28;20462;-81
2021/12/24 22:14:53;;;;;;;7.87;5.10;;;11.10;99.90;;;;;;4996771;28;21008;-81
2021/12/24 22:17:22;;;;;;;6.37;4.53;;;11.10;99.90;;;;;;5009522;28;20549;-80
2021/12/24 22:19:51;;;;;;;7.30;4.50;;;11.10;99.90;;;;;;5001631;28;20486;-81
2021/12/24 22:22:31;;;;;;;7.60;5.17;;;11.00;99.90;;;;;;4997513;28;20868;-81
2021/12/24 22:25:00;;;;;;;8.20;5.03;;;11.10;99.90;;;;;;4998733;28;20474;-81
2021/12/24 22:27:27;;;;;;;7.27;5.50;;;11.10;99.90;;;;;;4999104;28;20461;-81
2021/12/24 22:29:55;;;;;;;7.70;5.67;;;11.00;99.90;;;;;;5010893;28;20454;-80
2021/12/24 22:32:22;;;;;;;7.57;5.13;;;11.10;99.90;;;;;;5006020;28;20840;-81
2021/12/24 22:34:49;;;;;;;7.50;5.70;;;11.00;99.90;;;;;;4997775;28;20484;-80
2021/12/24 22:37:16;;;;;;;10.70;6.67;;;11.10;99.90;;;;;;5000983;28;20454;-80
2021/12/24 22:39:48;;;;;;;9.37;5.60;;;11.10;99.90;;;;;;5000810;28;20580;-81
2021/12/24 22:42:15;;;;;;;7.90;6.27;;;11.10;99.90;;;;;;4998190;28;20451;-81
2021/12/24 22:44:42;;;;;;;8.60;5.03;;;11.10;99.90;;;;;;5006194;28;20482;-80